createdAt,value
2023-03-06T00:01:35.872Z,82.60
2023-03-06T00:03:28.370Z,82.60
2023-03-06T00:05:20.137Z,82.65
2023-03-06T00:07:11.749Z,82.73
2023-03-06T00:09:03.838Z,83.00
2023-03-06T00:10:56.456Z,83.04
2023-03-06T00:12:48.896Z,83.16
2023-03-06T00:14:40.780Z,83.35
2023-03-06T00:16:32.563Z,83.39
2023-03-06T00:18:24.432Z,83.22
2023-03-06T00:20:16.748Z,83.19
2023-03-06T00:22:10.195Z,83.17
2023-03-06T00:24:01.901Z,83.11
2023-03-06T00:25:53.345Z,83.11
2023-03-06T00:27:45.597Z,83.01
2023-03-06T00:29:37.532Z,83.18
2023-03-06T00:31:29.076Z,83.23
2023-03-06T00:33:20.983Z,83.22
2023-03-06T00:35:13.245Z,83.42
2023-03-06T00:37:04.931Z,83.35
2023-03-06T00:38:56.425Z,83.28
2023-03-06T00:40:48.009Z,83.29
2023-03-06T00:42:40.263Z,83.30
2023-03-06T00:44:31.992Z,83.22
2023-03-06T00:46:23.455Z,83.20
2023-03-06T00:48:15.703Z,83.11
2023-03-06T00:50:08.147Z,83.10
2023-03-06T00:51:59.971Z,83.06
2023-03-06T00:53:51.757Z,83.14
2023-03-06T00:55:46.264Z,83.16
2023-03-06T00:57:38.118Z,83.19
2023-03-06T00:59:29.859Z,83.15
2023-03-06T01:01:21.745Z,83.06
2023-03-06T01:03:13.746Z,83.05
2023-03-06T01:05:06.548Z,83.01
2023-03-06T01:06:57.916Z,83.09
2023-03-06T01:08:49.809Z,83.24
2023-03-06T01:10:41.407Z,83.27
2023-03-06T01:12:32.905Z,83.41
2023-03-06T01:14:25.288Z,83.40
2023-03-06T01:16:19.167Z,83.54
2023-03-06T01:18:11.059Z,83.48
2023-03-06T01:20:04.641Z,83.53
2023-03-06T01:21:56.573Z,83.58
2023-03-06T01:23:48.576Z,83.58
2023-03-06T01:25:40.366Z,83.57
2023-03-06T01:27:32.318Z,83.51
2023-03-06T01:29:26.487Z,83.78
2023-03-06T01:31:18.182Z,83.72
2023-03-06T01:33:09.967Z,83.70
2023-03-06T01:35:03.877Z,83.74
2023-03-06T01:36:55.456Z,83.79
2023-03-06T01:38:47.541Z,83.80
2023-03-06T01:40:40.138Z,83.79
2023-03-06T01:42:32.233Z,84.07
2023-03-06T01:44:23.913Z,84.22
2023-03-06T01:46:44.363Z,84.35
2023-03-06T01:48:36.191Z,84.72
2023-03-06T01:50:28.732Z,84.60
2023-03-06T01:52:24.500Z,84.72
2023-03-06T01:54:29.623Z,84.83
2023-03-06T01:56:21.919Z,84.81
2023-03-06T01:58:16.607Z,84.91
2023-03-06T02:00:14.723Z,84.97
2023-03-06T02:02:07.260Z,85.06
2023-03-06T02:03:59.910Z,85.03
2023-03-06T02:05:52.377Z,85.03
2023-03-06T02:07:45.414Z,85.07
2023-03-06T02:09:37.785Z,85.19
2023-03-06T02:11:29.896Z,85.21
2023-03-06T02:13:21.776Z,85.28
2023-03-06T02:15:17.788Z,85.38
2023-03-06T02:17:12.713Z,85.46
2023-03-06T02:19:05.141Z,85.63
2023-03-06T02:21:04.057Z,85.63
2023-03-06T02:23:05.376Z,85.57
2023-03-06T02:25:05.009Z,85.64
2023-03-06T02:26:56.878Z,85.59
2023-03-06T02:28:48.962Z,85.75
2023-03-06T02:30:42.345Z,85.85
2023-03-06T02:32:34.194Z,85.97
2023-03-06T02:34:25.771Z,85.88
2023-03-06T02:36:17.492Z,85.80
2023-03-06T02:38:12.404Z,85.90
2023-03-06T02:40:08.837Z,85.79
2023-03-06T02:42:00.362Z,85.69
2023-03-06T02:43:52.951Z,85.61
2023-03-06T02:45:47.209Z,85.63
2023-03-06T02:47:38.670Z,85.57
2023-03-06T02:49:30.043Z,85.62
2023-03-06T02:51:21.986Z,85.58
2023-03-06T02:53:16.121Z,85.64
2023-03-06T02:55:08.156Z,85.67
2023-03-06T02:57:00.198Z,85.77
2023-03-06T02:58:52.325Z,85.58
2023-03-06T03:00:43.413Z,85.57
2023-03-06T03:02:34.759Z,85.51
2023-03-06T03:04:26.680Z,85.63
2023-03-06T03:06:17.910Z,85.56
2023-03-06T03:08:10.075Z,85.44
2023-03-06T03:10:01.781Z,85.36
2023-03-06T03:11:53.272Z,85.25
2023-03-06T03:13:44.837Z,85.21
2023-03-06T03:15:36.470Z,85.24
2023-03-06T03:17:28.564Z,85.19
2023-03-06T03:19:20.722Z,85.16
2023-03-06T03:21:14.258Z,85.20
2023-03-06T03:23:05.886Z,85.23
2023-03-06T03:24:57.314Z,85.22
2023-03-06T03:26:49.058Z,85.25
2023-03-06T03:28:40.852Z,85.29
2023-03-06T03:30:33.434Z,85.33
2023-03-06T03:32:25.334Z,85.52
2023-03-06T03:34:19.129Z,85.53
2023-03-06T03:36:11.171Z,85.54
2023-03-06T03:38:03.493Z,85.56
2023-03-06T03:39:56.481Z,85.67
2023-03-06T03:41:48.433Z,85.88
2023-03-06T03:43:40.400Z,85.83
2023-03-06T03:45:32.071Z,85.87
2023-03-06T03:47:24.157Z,85.87
2023-03-06T03:49:15.635Z,85.89
2023-03-06T03:51:09.731Z,86.21
2023-03-06T03:53:01.317Z,86.13
2023-03-06T03:54:52.700Z,86.16
2023-03-06T03:56:45.201Z,86.20
2023-03-06T03:58:36.860Z,86.33
2023-03-06T04:00:28.868Z,86.54
2023-03-06T04:02:21.976Z,86.39
2023-03-06T04:04:13.899Z,86.45
2023-03-06T04:06:05.645Z,86.52
2023-03-06T04:07:57.332Z,86.55
2023-03-06T04:09:49.345Z,86.64
2023-03-06T04:11:40.880Z,86.73
2023-03-06T04:13:32.879Z,86.55
2023-03-06T04:15:24.885Z,86.70
2023-03-06T04:17:16.164Z,86.73
2023-03-06T04:19:07.937Z,86.96
2023-03-06T04:21:00.102Z,86.83
2023-03-06T04:22:52.240Z,86.97
2023-03-06T04:24:44.047Z,86.91
2023-03-06T04:26:37.020Z,86.93
2023-03-06T04:28:28.817Z,86.97
2023-03-06T04:30:20.792Z,87.23
2023-03-06T04:32:12.644Z,87.04
2023-03-06T04:34:04.489Z,87.02
2023-03-06T04:35:56.089Z,87.13
2023-03-06T04:37:47.856Z,87.16
2023-03-06T04:39:39.226Z,87.21
2023-03-06T04:41:31.348Z,87.47
2023-03-06T04:43:23.029Z,87.36
2023-03-06T04:45:15.494Z,87.50
2023-03-06T04:47:07.657Z,87.37
2023-03-06T04:49:00.033Z,87.43
2023-03-06T04:50:52.024Z,87.34
2023-03-06T04:52:43.770Z,87.50
2023-03-06T04:54:35.789Z,87.41
2023-03-06T04:56:27.304Z,87.69
2023-03-06T04:58:19.097Z,87.73
2023-03-06T05:00:16.441Z,87.77
2023-03-06T05:02:08.451Z,87.85
2023-03-06T05:04:00.279Z,87.72
2023-03-06T05:05:52.008Z,87.89
2023-03-06T05:07:44.430Z,87.78
2023-03-06T05:09:38.297Z,88.23
2023-03-06T05:11:30.793Z,88.39
2023-03-06T05:13:22.552Z,88.50
2023-03-06T05:15:14.676Z,88.56
2023-03-06T05:17:06.699Z,88.62
2023-03-06T05:18:58.479Z,88.56
2023-03-06T05:20:50.208Z,88.61
2023-03-06T05:22:42.240Z,88.59
2023-03-06T05:24:34.314Z,88.57
2023-03-06T05:26:26.146Z,88.56
2023-03-06T05:28:17.980Z,88.52
2023-03-06T05:30:12.961Z,88.42
2023-03-06T05:32:04.996Z,88.53
2023-03-06T05:33:58.070Z,88.50
2023-03-06T05:35:50.108Z,88.32
2023-03-06T05:37:41.545Z,88.38
2023-03-06T05:39:33.407Z,88.20
2023-03-06T05:41:25.175Z,88.07
2023-03-06T05:43:17.036Z,88.04
2023-03-06T05:45:09.373Z,87.88
2023-03-06T05:47:01.796Z,87.75
2023-03-06T05:48:57.577Z,87.73
2023-03-06T05:50:55.488Z,87.66
2023-03-06T05:52:47.584Z,87.48
2023-03-06T05:54:39.386Z,87.34
2023-03-06T05:56:31.013Z,87.13
2023-03-06T05:58:22.927Z,86.91
2023-03-06T06:00:16.284Z,86.67
2023-03-06T06:02:08.134Z,86.64
2023-03-06T06:04:00.214Z,86.38
2023-03-06T06:05:53.122Z,86.40
2023-03-06T06:07:45.078Z,86.18
2023-03-06T06:09:37.011Z,86.10
2023-03-06T06:11:28.482Z,86.01
2023-03-06T06:13:20.235Z,85.82
2023-03-06T06:15:11.924Z,85.70
2023-03-06T06:17:04.155Z,85.57
2023-03-06T06:18:57.306Z,85.39
2023-03-06T06:20:48.898Z,85.30
2023-03-06T06:22:40.412Z,85.14
2023-03-06T06:24:32.518Z,85.05
2023-03-06T06:26:24.142Z,85.03
2023-03-06T06:28:15.512Z,84.72
2023-03-06T06:30:10.360Z,84.48
2023-03-06T06:32:02.181Z,84.55
2023-03-06T06:33:54.086Z,84.08
2023-03-06T06:35:45.725Z,83.78
2023-03-06T06:37:37.164Z,83.64
2023-03-06T06:39:29.577Z,83.58
2023-03-06T06:41:42.687Z,83.45
2023-03-06T06:43:32.480Z,83.11
2023-03-06T06:45:25.802Z,82.64
2023-03-06T06:47:23.113Z,82.65
2023-03-06T06:49:16.549Z,82.40
2023-03-06T06:51:07.867Z,82.36
2023-03-06T06:52:59.938Z,82.04
2023-03-06T06:54:52.755Z,82.17
2023-03-06T06:56:44.724Z,81.73
2023-03-06T06:58:36.642Z,81.77
2023-03-06T07:00:28.148Z,81.55
2023-03-06T07:02:19.727Z,81.27
2023-03-06T07:04:15.287Z,80.65
2023-03-06T07:06:07.389Z,80.48
2023-03-06T07:07:59.113Z,80.22
2023-03-06T07:09:50.895Z,80.09
2023-03-06T07:11:42.870Z,79.84
2023-03-06T07:13:35.132Z,79.31
2023-03-06T07:15:27.296Z,78.85
2023-03-06T07:17:19.127Z,78.96
2023-03-06T07:19:10.941Z,78.30
2023-03-06T07:21:02.489Z,78.32
2023-03-06T07:22:54.529Z,78.52
2023-03-06T07:24:46.169Z,78.36
2023-03-06T07:26:39.089Z,77.83
2023-03-06T07:28:40.006Z,77.52
2023-03-06T07:30:41.114Z,77.79
2023-03-06T07:32:32.920Z,77.75
2023-03-06T07:34:24.569Z,77.31
2023-03-06T07:36:15.992Z,76.64
2023-03-06T07:38:08.319Z,76.95
2023-03-06T07:40:00.233Z,76.06
2023-03-06T07:41:52.570Z,75.55
2023-03-06T07:43:45.225Z,75.62
2023-03-06T07:45:37.092Z,75.78
2023-03-06T07:47:28.834Z,75.50
2023-03-06T07:49:21.052Z,75.82
2023-03-06T07:51:18.061Z,75.42
2023-03-06T07:53:10.880Z,74.85
2023-03-06T07:55:04.208Z,73.56
2023-03-06T07:56:57.651Z,73.46
2023-03-06T07:58:50.801Z,73.97
2023-03-06T08:00:42.436Z,73.18
2023-03-06T08:02:33.878Z,72.46
2023-03-06T08:04:26.230Z,70.80
2023-03-06T08:06:22.557Z,70.22
2023-03-06T08:08:14.586Z,70.30
2023-03-06T08:10:06.592Z,70.08
2023-03-06T08:11:57.948Z,70.00
2023-03-06T08:13:52.788Z,70.12
2023-03-06T08:15:48.320Z,69.17
2023-03-06T08:17:40.261Z,69.42
2023-03-06T08:19:32.161Z,69.33
2023-03-06T08:21:25.919Z,68.68
2023-03-06T08:23:17.788Z,69.49
2023-03-06T08:25:10.529Z,68.89
2023-03-06T08:27:02.153Z,70.04
2023-03-06T08:28:56.550Z,69.71
2023-03-06T08:30:48.530Z,69.57
2023-03-06T08:32:40.241Z,69.95
2023-03-06T08:34:32.081Z,69.99
2023-03-06T08:36:24.295Z,68.44
2023-03-06T08:38:15.917Z,68.01
2023-03-06T08:40:08.730Z,68.83
2023-03-06T08:42:00.500Z,68.35
2023-03-06T08:43:52.588Z,67.96
2023-03-06T08:45:44.172Z,68.23
2023-03-06T08:47:36.381Z,66.76
2023-03-06T08:49:28.296Z,67.27
2023-03-06T08:51:20.949Z,67.47
2023-03-06T08:53:12.846Z,66.73
2023-03-06T08:55:05.308Z,66.02
2023-03-06T08:56:57.175Z,65.31
2023-03-06T08:58:49.808Z,64.69
2023-03-06T09:00:41.646Z,64.84
2023-03-06T09:02:33.517Z,65.42
2023-03-06T09:04:25.418Z,64.80
2023-03-06T09:06:17.645Z,64.74
2023-03-06T09:08:11.977Z,63.60
2023-03-06T09:10:04.412Z,62.62
2023-03-06T09:11:56.629Z,63.49
2023-03-06T09:13:48.335Z,64.15
2023-03-06T09:15:39.919Z,64.10
2023-03-06T09:17:31.353Z,62.71
2023-03-06T09:19:22.677Z,62.35
2023-03-06T09:21:13.910Z,62.56
2023-03-06T09:23:05.579Z,63.11
2023-03-06T09:24:57.813Z,63.68
2023-03-06T09:26:51.178Z,64.08
2023-03-06T09:28:47.461Z,63.37
2023-03-06T09:30:41.047Z,62.96
2023-03-06T09:32:32.878Z,63.93
2023-03-06T09:34:24.513Z,64.07
2023-03-06T09:36:24.751Z,63.43
2023-03-06T09:38:17.635Z,62.47
2023-03-06T09:40:29.512Z,63.96
2023-03-06T09:42:23.866Z,63.03
2023-03-06T09:44:18.476Z,62.00
2023-03-06T09:46:25.114Z,62.00
2023-03-06T09:48:17.186Z,61.43
2023-03-06T09:50:11.496Z,61.94
2023-03-06T09:52:11.781Z,61.73
2023-03-06T09:54:13.782Z,62.43
2023-03-06T09:56:17.408Z,62.07
2023-03-06T09:58:20.888Z,59.04
2023-03-06T10:00:15.301Z,58.70
2023-03-06T10:02:37.799Z,59.05
2023-03-06T10:04:32.720Z,58.24
2023-03-06T10:06:32.316Z,57.89
2023-03-06T10:08:47.230Z,59.57
2023-03-06T10:10:49.318Z,60.69
2023-03-06T10:12:53.975Z,60.19
2023-03-06T10:14:55.887Z,61.04
2023-03-06T10:16:47.753Z,59.05
2023-03-06T10:18:40.299Z,58.96
2023-03-06T10:21:04.748Z,56.56
2023-03-06T10:23:26.613Z,58.43
2023-03-06T10:25:53.331Z,59.37
2023-03-06T10:28:08.270Z,58.45
2023-03-06T10:30:06.906Z,60.24
2023-03-06T10:32:21.369Z,58.67
2023-03-06T10:34:23.018Z,59.89
2023-03-06T10:36:16.537Z,57.40
2023-03-06T10:38:31.860Z,57.81
2023-03-06T10:40:30.637Z,57.20
2023-03-06T10:42:22.917Z,57.20
2023-03-06T10:44:14.341Z,57.25
2023-03-06T10:46:08.200Z,56.79
2023-03-06T10:48:12.140Z,56.26
2023-03-06T10:50:18.663Z,57.14
2023-03-06T10:52:10.281Z,57.12
2023-03-06T10:54:14.201Z,56.65
2023-03-06T10:56:06.273Z,55.48
2023-03-06T10:57:58.098Z,55.91
2023-03-06T10:59:57.542Z,55.73
2023-03-06T11:01:51.796Z,55.74
2023-03-06T11:03:43.448Z,55.37
2023-03-06T11:05:35.105Z,55.10
2023-03-06T11:07:31.550Z,53.69
2023-03-06T11:09:26.324Z,53.94
2023-03-06T11:11:36.825Z,55.16
2023-03-06T11:13:32.589Z,55.10
2023-03-06T11:15:26.365Z,56.34
2023-03-06T11:17:28.822Z,53.87
2023-03-06T11:19:28.998Z,53.84
2023-03-06T11:21:35.329Z,53.06
2023-03-06T11:23:39.690Z,55.26
2023-03-06T11:25:45.001Z,55.00
2023-03-06T11:27:38.301Z,53.80
2023-03-06T11:29:42.369Z,53.89
2023-03-06T11:31:38.681Z,52.99
2023-03-06T11:33:40.278Z,53.61
2023-03-06T11:35:35.873Z,54.82
2023-03-06T11:37:55.443Z,55.41
2023-03-06T11:40:05.937Z,55.62
2023-03-06T11:42:31.979Z,55.33
2023-03-06T11:44:42.232Z,54.33
2023-03-06T11:46:39.053Z,54.29
2023-03-06T11:48:35.769Z,54.97
2023-03-06T11:50:43.716Z,53.45
2023-03-06T11:52:48.741Z,55.09
2023-03-06T11:54:40.309Z,54.94
2023-03-06T11:56:41.318Z,56.07
2023-03-06T11:58:54.704Z,54.74
2023-03-06T12:00:53.686Z,55.19
2023-03-06T12:02:59.216Z,54.96
2023-03-06T12:05:09.590Z,55.08
2023-03-06T12:07:09.028Z,55.91
2023-03-06T12:09:12.948Z,54.55
2023-03-06T12:11:09.707Z,54.85
2023-03-06T12:13:28.920Z,55.25
2023-03-06T12:15:48.584Z,53.86
2023-03-06T12:17:59.301Z,54.66
2023-03-06T12:20:23.388Z,54.09
2023-03-06T12:22:53.370Z,55.74
2023-03-06T12:25:27.815Z,56.26
2023-03-06T12:27:48.036Z,57.49
2023-03-06T12:30:13.848Z,58.17
2023-03-06T12:32:30.103Z,59.86
2023-03-06T12:34:44.640Z,60.49
2023-03-06T12:36:43.264Z,61.09
2023-03-06T12:39:01.435Z,61.51
2023-03-06T12:41:14.480Z,62.33
2023-03-06T12:43:27.659Z,62.64
2023-03-06T12:45:22.517Z,63.77
2023-03-06T12:47:18.492Z,64.73
2023-03-06T12:49:26.365Z,65.16
2023-03-06T12:51:23.178Z,66.18
2023-03-06T12:53:30.011Z,66.55
2023-03-06T12:55:25.806Z,66.66
2023-03-06T12:57:17.901Z,66.67
2023-03-06T12:59:44.603Z,66.80
2023-03-06T13:02:16.377Z,67.45
2023-03-06T13:04:27.417Z,66.70
2023-03-06T13:06:50.283Z,67.59
2023-03-06T13:09:17.417Z,68.20
2023-03-06T13:11:35.636Z,68.80
2023-03-06T13:13:41.916Z,68.91
2023-03-06T13:15:41.092Z,69.69
2023-03-06T13:17:36.180Z,70.48
2023-03-06T13:19:28.013Z,70.04
2023-03-06T13:21:42.449Z,70.06
2023-03-06T13:23:35.194Z,70.52
2023-03-06T13:25:26.764Z,70.84
2023-03-06T13:28:03.336Z,70.98
2023-03-06T13:30:06.592Z,71.45
2023-03-06T13:32:01.364Z,71.67
2023-03-06T13:33:54.606Z,71.99
2023-03-06T13:35:57.705Z,72.36
2023-03-06T13:37:51.218Z,73.07
2023-03-06T13:40:14.225Z,73.15
2023-03-06T13:42:07.162Z,73.41
2023-03-06T13:44:01.036Z,73.77
2023-03-06T13:45:52.813Z,73.44
2023-03-06T13:48:21.425Z,73.79
2023-03-06T13:50:38.183Z,73.67
2023-03-06T13:52:35.270Z,73.60
2023-03-06T13:54:55.777Z,73.82
2023-03-06T13:57:12.413Z,73.77
2023-03-06T13:59:31.506Z,74.48
2023-03-06T14:01:26.928Z,74.87
2023-03-06T14:03:49.575Z,74.87
2023-03-06T14:05:49.414Z,74.67
2023-03-06T14:07:48.748Z,74.17
2023-03-06T14:09:45.225Z,73.74
2023-03-06T14:11:37.960Z,73.48
2023-03-06T14:13:41.818Z,73.44
2023-03-06T14:15:45.220Z,72.69
2023-03-06T14:17:39.283Z,73.00
2023-03-06T14:19:33.127Z,73.19
2023-03-06T14:21:46.748Z,73.08
2023-03-06T14:23:42.664Z,73.22
2023-03-06T14:25:34.490Z,72.98
2023-03-06T14:27:48.485Z,72.82
2023-03-06T14:29:40.035Z,72.05
2023-03-06T14:31:34.893Z,71.02
2023-03-06T14:33:34.704Z,71.14
2023-03-06T14:35:31.698Z,71.83
2023-03-06T14:37:25.326Z,71.98
2023-03-06T14:39:36.590Z,71.60
2023-03-06T14:41:30.694Z,71.35
2023-03-06T14:43:26.990Z,71.25
2023-03-06T14:45:19.161Z,70.88
2023-03-06T14:47:22.792Z,70.45
2023-03-06T14:49:19.413Z,70.55
2023-03-06T14:51:22.456Z,70.71
2023-03-06T14:53:21.778Z,70.48
2023-03-06T14:55:21.484Z,70.01
2023-03-06T14:57:15.687Z,70.30
2023-03-06T14:59:11.010Z,70.33
2023-03-06T15:01:06.193Z,70.96
2023-03-06T15:02:58.486Z,71.17
2023-03-06T15:04:53.528Z,70.99
2023-03-06T15:06:45.525Z,71.31
2023-03-06T15:08:39.394Z,71.16
2023-03-06T15:10:35.293Z,71.23
2023-03-06T15:12:26.690Z,70.55
2023-03-06T15:14:20.696Z,70.79
2023-03-06T15:16:15.255Z,71.16
2023-03-06T15:18:28.777Z,71.62
2023-03-06T15:20:41.499Z,71.02
2023-03-06T15:22:41.517Z,70.99
2023-03-06T15:24:36.844Z,71.34
2023-03-06T15:26:33.189Z,71.05
2023-03-06T15:28:31.743Z,70.94
2023-03-06T15:30:30.614Z,70.93
2023-03-06T15:32:25.092Z,71.22
2023-03-06T15:34:26.308Z,71.44
2023-03-06T15:36:27.653Z,71.47
2023-03-06T15:38:32.699Z,71.43
2023-03-06T15:40:26.521Z,71.65
2023-03-06T15:42:22.446Z,71.39
2023-03-06T15:44:15.324Z,71.38
2023-03-06T15:46:07.849Z,71.42
2023-03-06T15:47:59.535Z,71.39
2023-03-06T15:49:53.815Z,71.56
2023-03-06T15:51:45.626Z,71.70
2023-03-06T15:53:37.443Z,71.62
2023-03-06T15:55:29.075Z,71.50
2023-03-06T15:57:29.453Z,71.34
2023-03-06T15:59:26.794Z,71.57
2023-03-06T16:01:18.531Z,71.45
2023-03-06T16:03:11.461Z,71.54
2023-03-06T16:05:05.790Z,71.69
2023-03-06T16:06:57.523Z,71.64
2023-03-06T16:08:48.966Z,71.87
2023-03-06T16:10:42.670Z,71.96
2023-03-06T16:12:34.292Z,71.89
2023-03-06T16:14:25.765Z,71.90
2023-03-06T16:16:19.493Z,71.95
2023-03-06T16:18:12.620Z,72.06
2023-03-06T16:20:03.777Z,72.18
2023-03-06T16:21:56.379Z,72.16
2023-03-06T16:23:47.842Z,72.14
2023-03-06T16:25:41.860Z,72.16
2023-03-06T16:27:33.142Z,72.04
2023-03-06T16:29:26.801Z,72.27
2023-03-06T16:31:18.648Z,72.49
2023-03-06T16:33:14.015Z,72.50
2023-03-06T16:35:05.971Z,72.52
2023-03-06T16:36:57.878Z,72.57
2023-03-06T16:38:50.701Z,72.66
2023-03-06T16:40:42.774Z,72.74
2023-03-06T16:42:34.369Z,72.73
2023-03-06T16:44:26.256Z,72.94
2023-03-06T16:46:20.493Z,73.05
2023-03-06T16:48:16.628Z,73.06
2023-03-06T16:50:20.028Z,73.15
2023-03-06T16:52:11.898Z,73.25
2023-03-06T16:54:03.962Z,73.34
2023-03-06T16:55:55.597Z,73.46
2023-03-06T16:57:47.625Z,73.54
2023-03-06T16:59:39.222Z,73.51
2023-03-06T17:01:30.869Z,73.62
2023-03-06T17:03:22.604Z,73.69
2023-03-06T17:05:14.474Z,73.78
2023-03-06T17:07:06.213Z,73.88
2023-03-06T17:08:59.868Z,73.95
2023-03-06T17:10:52.105Z,74.09
2023-03-06T17:12:44.077Z,74.00
2023-03-06T17:14:36.156Z,74.11
2023-03-06T17:16:27.853Z,74.33
2023-03-06T17:18:19.897Z,74.37
2023-03-06T17:20:12.827Z,74.48
2023-03-06T17:22:04.644Z,74.46
2023-03-06T17:23:57.335Z,74.54
2023-03-06T17:25:49.249Z,74.52
2023-03-06T17:27:41.213Z,74.61
2023-03-06T17:29:33.136Z,74.68
2023-03-06T17:31:27.132Z,74.68
2023-03-06T17:33:19.452Z,74.83
2023-03-06T17:35:11.055Z,74.91
2023-03-06T17:37:03.163Z,75.08
2023-03-06T17:38:57.030Z,75.28
2023-03-06T17:40:48.691Z,75.39
2023-03-06T17:42:40.446Z,75.56
2023-03-06T17:44:33.236Z,75.53
2023-03-06T17:46:25.667Z,75.48
2023-03-06T17:48:17.643Z,75.55
2023-03-06T17:50:30.285Z,75.68
2023-03-06T17:52:21.854Z,75.63
2023-03-06T17:54:13.520Z,75.69
2023-03-06T17:56:07.443Z,76.04
2023-03-06T17:57:59.176Z,76.22
2023-03-06T17:59:50.705Z,76.23
2023-03-06T18:01:43.571Z,76.37
2023-03-06T18:03:37.379Z,76.45
2023-03-06T18:05:30.220Z,76.52
2023-03-06T18:07:22.185Z,76.77
2023-03-06T18:09:13.814Z,76.79
2023-03-06T18:11:07.944Z,77.07
2023-03-06T18:13:00.113Z,77.07
2023-03-06T18:14:51.956Z,77.15
2023-03-06T18:16:43.995Z,77.33
2023-03-06T18:18:36.187Z,77.16
2023-03-06T18:20:27.712Z,77.26
2023-03-06T18:22:19.414Z,77.28
2023-03-06T18:24:12.384Z,77.19
2023-03-06T18:26:09.487Z,77.06
2023-03-06T18:28:01.591Z,77.01
2023-03-06T18:29:55.564Z,76.90
2023-03-06T18:31:50.185Z,76.96
2023-03-06T18:33:41.956Z,76.82
2023-03-06T18:35:34.888Z,76.76
2023-03-06T18:37:26.321Z,76.59
2023-03-06T18:39:17.705Z,76.61
2023-03-06T18:41:09.898Z,76.60
2023-03-06T18:43:01.450Z,76.52
2023-03-06T18:44:52.699Z,76.44
2023-03-06T18:46:44.044Z,76.42
2023-03-06T18:48:36.139Z,76.33
2023-03-06T18:50:28.347Z,76.33
2023-03-06T18:52:20.653Z,76.29
2023-03-06T18:54:12.834Z,76.36
2023-03-06T18:56:05.013Z,76.30
2023-03-06T18:57:57.387Z,76.26
2023-03-06T18:59:49.343Z,76.36
2023-03-06T19:01:47.928Z,76.32
2023-03-06T19:03:39.757Z,76.32
2023-03-06T19:05:31.772Z,76.37
2023-03-06T19:07:24.947Z,76.33
2023-03-06T19:09:16.728Z,76.32
2023-03-06T19:11:10.836Z,76.31
2023-03-06T19:13:02.849Z,76.42
2023-03-06T19:14:54.399Z,76.49
2023-03-06T19:16:46.419Z,76.51
2023-03-06T19:18:38.692Z,76.54
2023-03-06T19:20:30.487Z,76.53
2023-03-06T19:22:23.217Z,76.54
2023-03-06T19:24:14.929Z,76.52
2023-03-06T19:26:07.687Z,76.50
2023-03-06T19:28:00.439Z,76.65
2023-03-06T19:29:52.151Z,76.78
2023-03-06T19:31:44.337Z,76.84
2023-03-06T19:33:37.990Z,76.95
2023-03-06T19:35:29.692Z,77.04
2023-03-06T19:37:21.636Z,77.42
2023-03-06T19:39:14.016Z,77.65
2023-03-06T19:41:06.292Z,77.82
2023-03-06T19:42:57.909Z,77.88
2023-03-06T19:44:49.482Z,77.98
2023-03-06T19:46:40.821Z,78.10
2023-03-06T19:48:32.607Z,78.15
2023-03-06T19:50:28.628Z,78.32
2023-03-06T19:52:20.124Z,78.25
2023-03-06T19:54:13.119Z,78.35
2023-03-06T19:56:08.653Z,78.40
2023-03-06T19:58:00.266Z,78.43
2023-03-06T19:59:52.207Z,78.44
2023-03-06T20:01:44.167Z,78.51
2023-03-06T20:03:36.095Z,78.62
2023-03-06T20:05:27.866Z,78.75
2023-03-06T20:07:19.586Z,78.94
2023-03-06T20:09:11.710Z,79.06
2023-03-06T20:11:04.263Z,79.13
2023-03-06T20:12:55.512Z,79.10
2023-03-06T20:14:47.418Z,79.10
2023-03-06T20:16:39.596Z,79.07
2023-03-06T20:18:31.265Z,79.07
2023-03-06T20:20:22.472Z,78.91
2023-03-06T20:22:14.226Z,78.97
2023-03-06T20:24:08.050Z,79.01
2023-03-06T20:26:09.870Z,78.98
2023-03-06T20:28:01.415Z,78.99
2023-03-06T20:29:52.676Z,79.06
2023-03-06T20:31:44.288Z,79.01
2023-03-06T20:33:36.410Z,78.98
2023-03-06T20:35:28.432Z,78.93
2023-03-06T20:37:20.651Z,78.94
2023-03-06T20:39:18.272Z,78.88
2023-03-06T20:41:15.775Z,78.83
2023-03-06T20:43:08.345Z,78.83
2023-03-06T20:45:00.510Z,78.77
2023-03-06T20:46:52.816Z,78.77
2023-03-06T20:48:47.909Z,78.78
2023-03-06T20:50:40.035Z,78.68
2023-03-06T20:52:31.779Z,78.82
2023-03-06T20:54:23.284Z,78.85
2023-03-06T20:56:21.265Z,78.77
2023-03-06T20:58:12.919Z,78.87
2023-03-06T21:00:05.698Z,78.89
2023-03-06T21:01:57.291Z,78.89
2023-03-06T21:03:50.056Z,78.93
2023-03-06T21:05:42.244Z,78.98
2023-03-06T21:07:33.908Z,79.02
2023-03-06T21:09:25.550Z,78.95
2023-03-06T21:11:18.149Z,78.78
2023-03-06T21:13:09.775Z,78.78
2023-03-06T21:15:01.386Z,78.90
2023-03-06T21:16:53.364Z,78.92
2023-03-06T21:18:45.622Z,78.96
2023-03-06T21:20:41.247Z,78.93
2023-03-06T21:22:33.154Z,79.00
2023-03-06T21:24:24.804Z,79.03
2023-03-06T21:26:19.229Z,79.00
2023-03-06T21:28:10.798Z,78.99
2023-03-06T21:30:02.387Z,79.01
2023-03-06T21:31:53.698Z,78.96
2023-03-06T21:33:47.028Z,78.90
2023-03-06T21:35:41.195Z,78.93
2023-03-06T21:37:32.799Z,79.01
2023-03-06T21:39:24.057Z,79.01
2023-03-06T21:41:18.552Z,79.04
2023-03-06T21:43:10.511Z,79.06
2023-03-06T21:45:04.224Z,79.24
2023-03-06T21:46:55.764Z,79.17
2023-03-06T21:48:47.078Z,79.19
2023-03-06T21:50:38.598Z,79.16
2023-03-06T21:52:30.727Z,79.06
2023-03-06T21:54:22.625Z,79.20
2023-03-06T21:56:16.492Z,79.27
2023-03-06T21:58:08.301Z,79.26
2023-03-06T21:59:59.892Z,79.16
2023-03-06T22:01:51.624Z,79.15
2023-03-06T22:03:43.705Z,79.06
2023-03-06T22:05:34.941Z,79.27
2023-03-06T22:07:27.492Z,79.26
2023-03-06T22:09:19.988Z,79.44
2023-03-06T22:11:13.902Z,79.34
2023-03-06T22:13:05.599Z,79.36
2023-03-06T22:14:57.166Z,79.50
2023-03-06T22:16:51.047Z,79.55
2023-03-06T22:18:47.232Z,79.59
2023-03-06T22:20:39.797Z,79.58
2023-03-06T22:22:31.332Z,79.61
2023-03-06T22:24:23.056Z,79.73
2023-03-06T22:26:15.545Z,79.73
2023-03-06T22:28:06.840Z,79.77
2023-03-06T22:29:58.777Z,79.89
2023-03-06T22:31:52.187Z,79.98
2023-03-06T22:33:44.235Z,80.12
2023-03-06T22:35:36.313Z,80.32
2023-03-06T22:37:27.934Z,80.47
2023-03-06T22:39:19.392Z,80.45
2023-03-06T22:41:12.837Z,80.59
2023-03-06T22:43:04.155Z,80.69
2023-03-06T22:44:56.024Z,80.70
2023-03-06T22:46:47.443Z,80.72
2023-03-06T22:48:38.795Z,80.92
2023-03-06T22:50:30.660Z,80.99
2023-03-06T22:52:22.260Z,81.05
2023-03-06T22:54:13.687Z,81.06
2023-03-06T22:56:10.591Z,81.11
2023-03-06T22:58:02.354Z,81.15
2023-03-06T22:59:53.834Z,81.24
2023-03-06T23:01:45.503Z,81.20
2023-03-06T23:03:39.432Z,81.27
2023-03-06T23:05:30.992Z,81.30
2023-03-06T23:07:22.773Z,81.41
2023-03-06T23:09:21.537Z,81.33
2023-03-06T23:11:15.804Z,81.31
2023-03-06T23:13:07.755Z,81.37
2023-03-06T23:14:59.285Z,81.48
2023-03-06T23:16:51.539Z,81.58
2023-03-06T23:18:42.984Z,81.66
2023-03-06T23:20:34.920Z,81.71
2023-03-06T23:22:26.850Z,81.79
2023-03-06T23:24:18.709Z,81.71
2023-03-06T23:26:13.620Z,81.65
2023-03-06T23:28:05.480Z,81.75
2023-03-06T23:29:59.026Z,81.81
2023-03-06T23:31:50.672Z,81.81
2023-03-06T23:33:42.644Z,81.77
2023-03-06T23:35:35.372Z,81.65
2023-03-06T23:37:27.501Z,81.69
2023-03-06T23:39:19.532Z,81.70
2023-03-06T23:41:14.836Z,81.77
2023-03-06T23:43:06.495Z,81.72
2023-03-06T23:44:58.259Z,81.79
2023-03-06T23:46:49.672Z,81.87
2023-03-06T23:48:43.015Z,81.98
2023-03-06T23:50:34.407Z,82.16
2023-03-06T23:52:26.764Z,82.34
2023-03-06T23:54:19.063Z,82.46
2023-03-06T23:56:10.549Z,82.41
2023-03-06T23:58:01.853Z,82.33
2023-03-06T23:59:53.846Z,82.41
